createdAt,value
2022-07-26T00:04:07.789Z,75.84
2022-07-26T00:10:10.242Z,76.95
2022-07-26T00:16:12.370Z,73.41
2022-07-26T00:22:33.094Z,75.47
2022-07-26T00:28:35.251Z,76.42
2022-07-26T00:34:38.411Z,78.10
2022-07-26T00:40:40.373Z,78.57
2022-07-26T00:46:44.049Z,78.43
2022-07-26T00:52:49.347Z,79.95
2022-07-26T00:58:51.376Z,80.03
2022-07-26T01:04:53.427Z,80.93
2022-07-26T01:10:55.833Z,81.15
2022-07-26T01:16:58.072Z,82.26
2022-07-26T01:23:00.488Z,82.32
2022-07-26T01:29:02.552Z,82.02
2022-07-26T01:35:05.546Z,82.01
2022-07-26T01:41:07.601Z,80.79
2022-07-26T01:47:09.617Z,77.54
2022-07-26T01:53:11.586Z,76.77
2022-07-26T01:59:13.575Z,75.66
2022-07-26T02:05:15.503Z,72.45
2022-07-26T02:11:17.428Z,72.49
2022-07-26T02:17:19.494Z,73.46
2022-07-26T02:23:23.189Z,71.95
2022-07-26T02:29:26.506Z,70.74
2022-07-26T02:35:28.657Z,72.38
2022-07-26T02:41:30.680Z,76.42
2022-07-26T02:47:33.091Z,78.86
2022-07-26T02:53:35.063Z,77.76
2022-07-26T02:59:37.059Z,78.19
2022-07-26T03:05:39.091Z,77.47
2022-07-26T03:11:41.067Z,77.68
2022-07-26T03:17:59.472Z,76.66
2022-07-26T03:24:01.426Z,77.51
2022-07-26T03:30:05.397Z,76.96
2022-07-26T03:36:11.278Z,77.14
2022-07-26T03:42:13.716Z,77.93
2022-07-26T03:48:15.688Z,78.57
2022-07-26T03:54:17.822Z,79.33
2022-07-26T04:00:19.897Z,80.17
2022-07-26T04:06:23.152Z,77.96
2022-07-26T04:12:25.250Z,77.71
2022-07-26T04:18:27.228Z,76.75
2022-07-26T04:24:29.212Z,75.46
2022-07-26T04:30:31.376Z,76.28
2022-07-26T04:36:33.382Z,76.67
2022-07-26T04:42:36.096Z,76.60
2022-07-26T04:48:38.754Z,77.23
2022-07-26T04:54:40.730Z,77.72
2022-07-26T05:01:08.365Z,76.91
2022-07-26T05:07:04.748Z,77.60
2022-07-26T05:13:07.676Z,77.18
2022-07-26T05:19:09.803Z,77.60
2022-07-26T05:25:11.849Z,78.04
2022-07-26T05:31:13.897Z,78.35
2022-07-26T05:37:16.494Z,76.75
2022-07-26T05:43:18.855Z,75.43
2022-07-26T05:49:20.861Z,73.74
2022-07-26T05:55:22.845Z,71.71
2022-07-26T06:01:25.031Z,71.48
2022-07-26T06:07:28.493Z,73.07
2022-07-26T06:13:30.516Z,72.10
2022-07-26T06:19:32.956Z,73.46
2022-07-26T06:25:35.193Z,72.45
2022-07-26T06:31:37.543Z,71.60
2022-07-26T06:37:41.675Z,72.29
2022-07-26T06:43:43.684Z,72.00
2022-07-26T06:49:45.707Z,72.08
2022-07-26T06:55:47.731Z,71.70
2022-07-26T07:01:58.036Z,72.38
2022-07-26T07:08:02.360Z,72.55
2022-07-26T07:14:04.700Z,72.64
2022-07-26T07:20:07.247Z,71.91
2022-07-26T07:26:09.447Z,70.88
2022-07-26T07:32:16.084Z,71.75
2022-07-26T07:38:22.535Z,71.09
2022-07-26T07:44:24.633Z,71.22
2022-07-26T07:50:27.319Z,71.93
2022-07-26T07:56:30.652Z,71.38
2022-07-26T08:02:32.618Z,70.73
2022-07-26T08:08:36.152Z,70.03
2022-07-26T08:14:38.222Z,66.72
2022-07-26T08:20:42.956Z,67.99
2022-07-26T08:26:45.557Z,66.77
2022-07-26T08:32:47.534Z,66.28
2022-07-26T08:38:49.675Z,64.89
2022-07-26T08:44:52.576Z,64.48
2022-07-26T08:50:58.331Z,62.75
2022-07-26T08:57:00.429Z,62.22
2022-07-26T09:03:03.702Z,63.12
2022-07-26T09:09:14.961Z,63.54
2022-07-26T09:15:27.607Z,63.12
2022-07-26T09:21:38.788Z,59.60
2022-07-26T09:27:40.880Z,59.94
2022-07-26T09:33:51.785Z,60.71
2022-07-26T09:40:00.382Z,59.70
2022-07-26T09:46:07.310Z,58.63
2022-07-26T09:52:21.374Z,59.58
2022-07-26T09:58:25.015Z,59.58
2022-07-26T10:04:27.270Z,60.70
2022-07-26T10:10:55.718Z,59.62
2022-07-26T10:16:57.763Z,58.56
2022-07-26T10:22:59.788Z,60.03
2022-07-26T10:29:26.451Z,57.60
2022-07-26T10:35:34.754Z,53.32
2022-07-26T10:41:48.255Z,50.83
2022-07-26T10:48:29.331Z,50.20
2022-07-26T10:54:31.960Z,50.97
2022-07-26T11:00:34.728Z,47.25
2022-07-26T11:06:36.761Z,48.53
2022-07-26T11:12:38.916Z,47.28
2022-07-26T11:18:40.918Z,48.86
2022-07-26T11:24:43.198Z,50.96
2022-07-26T11:30:59.536Z,59.56
2022-07-26T11:37:04.880Z,60.96
2022-07-26T11:43:07.041Z,59.96
2022-07-26T11:49:41.403Z,60.93
2022-07-26T11:55:47.651Z,62.35
2022-07-26T12:01:50.113Z,60.88
2022-07-26T12:08:04.299Z,61.66
2022-07-26T12:14:06.573Z,60.29
2022-07-26T12:20:18.024Z,58.51
2022-07-26T12:26:30.134Z,58.22
2022-07-26T12:32:38.407Z,58.56
2022-07-26T12:38:41.065Z,58.58
2022-07-26T12:44:43.032Z,59.35
2022-07-26T12:50:45.090Z,60.13
2022-07-26T12:56:47.113Z,61.50
2022-07-26T13:02:51.361Z,63.04
2022-07-26T13:08:53.826Z,64.30
2022-07-26T13:14:56.078Z,64.23
2022-07-26T13:20:58.200Z,66.03
2022-07-26T13:27:01.288Z,66.35
2022-07-26T13:33:04.644Z,67.26
2022-07-26T13:39:06.666Z,69.25
2022-07-26T13:45:09.586Z,69.37
2022-07-26T13:51:11.764Z,69.24
2022-07-26T13:57:13.728Z,69.80
2022-07-26T14:03:16.080Z,71.42
2022-07-26T14:09:20.144Z,73.49
2022-07-26T14:15:23.552Z,68.91
2022-07-26T14:21:29.666Z,68.69
2022-07-26T14:27:47.448Z,60.85
2022-07-26T14:33:49.496Z,49.92
2022-07-26T14:39:51.969Z,45.37
2022-07-26T14:45:54.019Z,48.44
2022-07-26T14:51:56.633Z,51.04
2022-07-26T14:57:58.713Z,53.16
2022-07-26T15:04:00.687Z,54.28
2022-07-26T15:10:04.062Z,57.30
2022-07-26T15:16:06.227Z,58.82
2022-07-26T15:22:09.527Z,58.81
2022-07-26T15:28:11.555Z,59.76
2022-07-26T15:34:13.868Z,59.57
2022-07-26T15:40:16.204Z,61.28
2022-07-26T15:46:19.657Z,63.82
2022-07-26T15:52:23.743Z,64.84
2022-07-26T15:58:26.949Z,64.94
2022-07-26T16:04:28.959Z,69.12
2022-07-26T16:10:30.997Z,68.61
2022-07-26T16:16:33.104Z,69.02
2022-07-26T16:22:35.570Z,69.13
2022-07-26T16:28:37.699Z,66.63
2022-07-26T16:34:39.920Z,66.47
2022-07-26T16:40:42.732Z,68.17
2022-07-26T16:46:44.937Z,68.89
2022-07-26T16:52:46.941Z,70.67
2022-07-26T16:58:48.991Z,73.76
2022-07-26T17:04:51.065Z,78.60
2022-07-26T17:10:53.064Z,80.30
2022-07-26T17:16:55.081Z,81.13
2022-07-26T17:22:57.092Z,79.50
2022-07-26T17:28:59.384Z,78.85
2022-07-26T17:35:01.541Z,75.61
2022-07-26T17:41:03.872Z,73.62
2022-07-26T17:47:27.586Z,67.50
2022-07-26T17:53:33.903Z,57.99
2022-07-26T17:59:36.744Z,53.15
2022-07-26T18:05:41.364Z,49.13
2022-07-26T18:11:43.641Z,45.50
2022-07-26T18:17:45.821Z,45.50
2022-07-26T18:24:14.406Z,45.22
2022-07-26T18:30:10.183Z,46.29
2022-07-26T18:36:12.265Z,47.72
2022-07-26T18:42:14.297Z,49.02
2022-07-26T18:48:16.255Z,55.80
2022-07-26T18:54:18.983Z,61.76
2022-07-26T19:00:22.699Z,67.38
2022-07-26T19:06:24.763Z,70.46
2022-07-26T19:12:27.977Z,72.73
2022-07-26T19:18:29.993Z,75.06
2022-07-26T19:24:32.023Z,76.77
2022-07-26T19:30:35.142Z,78.57
2022-07-26T19:36:37.393Z,80.71
2022-07-26T19:42:39.488Z,81.82
2022-07-26T19:48:41.542Z,83.53
2022-07-26T19:54:43.580Z,84.94
2022-07-26T20:00:45.573Z,86.64
2022-07-26T20:06:48.082Z,87.34
2022-07-26T20:12:50.093Z,88.27
2022-07-26T20:18:52.071Z,89.31
2022-07-26T20:24:56.190Z,89.62
2022-07-26T20:30:58.245Z,90.68
2022-07-26T20:37:00.292Z,91.69
2022-07-26T20:43:02.253Z,91.83
2022-07-26T20:49:04.296Z,92.70
2022-07-26T20:55:07.689Z,92.26
2022-07-26T21:01:10.476Z,93.71
2022-07-26T21:07:12.694Z,94.47
2022-07-26T21:13:14.947Z,94.15
2022-07-26T21:19:16.915Z,93.90
2022-07-26T21:25:19.020Z,93.63
2022-07-26T21:31:21.260Z,93.87
2022-07-26T21:37:23.258Z,93.29
2022-07-26T21:43:25.618Z,91.88
2022-07-26T21:49:27.698Z,92.00
2022-07-26T21:55:30.218Z,91.54
2022-07-26T22:01:32.277Z,91.03
2022-07-26T22:07:34.323Z,91.34
2022-07-26T22:13:36.852Z,91.19
2022-07-26T22:19:38.813Z,91.75
2022-07-26T22:25:41.451Z,91.93
2022-07-26T22:31:43.546Z,92.36
2022-07-26T22:37:45.640Z,90.58
2022-07-26T22:43:47.593Z,89.91
2022-07-26T22:49:49.715Z,89.98
2022-07-26T22:55:52.188Z,88.59
2022-07-26T23:01:57.247Z,87.33
2022-07-26T23:08:03.607Z,87.86
2022-07-26T23:14:06.068Z,86.37
2022-07-26T23:20:11.187Z,86.31
2022-07-26T23:26:13.200Z,84.24
2022-07-26T23:32:15.189Z,82.40
2022-07-26T23:38:17.159Z,82.40
2022-07-26T23:44:19.128Z,81.33
2022-07-26T23:50:21.113Z,81.23
2022-07-26T23:56:23.358Z,80.60
